createdAt,value
2023-05-21T00:00:33.326Z,99842.60
2023-05-21T00:03:21.334Z,99844.92
2023-05-21T00:05:50.370Z,99848.08
2023-05-21T00:08:18.321Z,99846.91
2023-05-21T00:10:46.002Z,99847.36
2023-05-21T00:13:13.649Z,99846.91
2023-05-21T00:15:41.450Z,99847.16
2023-05-21T00:18:09.168Z,99850.38
2023-05-21T00:20:37.370Z,99851.79
2023-05-21T00:23:05.531Z,99852.93
2023-05-21T00:25:33.330Z,99856.36
2023-05-21T00:28:01.475Z,99859.23
2023-05-21T00:30:29.161Z,99857.57
2023-05-21T00:32:59.085Z,99858.17
2023-05-21T00:35:26.903Z,99860.30
2023-05-21T00:37:54.560Z,99859.95
2023-05-21T00:40:22.435Z,99861.28
2023-05-21T00:42:50.129Z,99862.06
2023-05-21T00:45:17.860Z,99861.98
2023-05-21T00:47:46.018Z,99858.56
2023-05-21T00:50:15.344Z,99858.09
2023-05-21T00:52:43.165Z,99860.70
2023-05-21T00:55:11.203Z,99855.48
2023-05-21T00:57:38.874Z,99854.84
2023-05-21T01:00:10.925Z,99854.39
2023-05-21T01:02:41.494Z,99852.15
2023-05-21T01:05:09.388Z,99851.30
2023-05-21T01:07:37.052Z,99851.97
2023-05-21T01:10:04.809Z,99855.14
2023-05-21T01:12:32.589Z,99850.45
2023-05-21T01:15:00.233Z,99848.58
2023-05-21T01:17:27.881Z,99843.20
2023-05-21T01:19:55.614Z,99841.48
2023-05-21T01:22:25.206Z,99840.23
2023-05-21T01:24:53.242Z,99840.13
2023-05-21T01:27:21.218Z,99839.98
2023-05-21T01:29:48.879Z,99840.88
2023-05-21T01:32:16.559Z,99840.41
2023-05-21T01:34:44.235Z,99837.66
2023-05-21T01:37:11.902Z,99834.20
2023-05-21T01:39:39.570Z,99833.84
2023-05-21T01:42:07.285Z,99834.61
2023-05-21T01:44:34.944Z,99831.83
2023-05-21T01:47:02.585Z,99832.05
2023-05-21T01:49:30.242Z,99832.09
2023-05-21T01:51:57.886Z,99827.08
2023-05-21T01:54:25.557Z,99826.88
2023-05-21T01:56:53.255Z,99823.77
2023-05-21T01:59:20.954Z,99824.89
2023-05-21T02:01:48.651Z,99827.73
2023-05-21T02:04:16.365Z,99827.94
2023-05-21T02:06:44.647Z,99826.75
2023-05-21T02:09:12.325Z,99822.40
2023-05-21T02:11:40.149Z,99816.06
2023-05-21T02:14:10.578Z,99815.96
2023-05-21T02:16:38.627Z,99809.70
2023-05-21T02:19:07.116Z,99810.30
2023-05-21T02:21:34.995Z,99807.88
2023-05-21T02:24:02.732Z,99808.65
2023-05-21T02:26:30.524Z,99805.86
2023-05-21T02:28:58.492Z,99805.67
2023-05-21T02:31:26.374Z,99803.42
2023-05-21T02:33:54.200Z,99802.45
2023-05-21T02:36:22.094Z,99798.80
2023-05-21T02:38:50.268Z,99801.83
2023-05-21T02:41:18.042Z,99802.41
2023-05-21T02:43:45.795Z,99797.70
2023-05-21T02:46:13.724Z,99795.73
2023-05-21T02:48:41.640Z,99792.64
2023-05-21T02:51:09.393Z,99790.07
2023-05-21T02:53:37.163Z,99784.52
2023-05-21T02:56:05.129Z,99785.66
2023-05-21T02:58:33.713Z,99780.80
2023-05-21T03:01:01.944Z,99784.89
2023-05-21T03:03:29.969Z,99782.77
2023-05-21T03:05:58.945Z,99783.48
2023-05-21T03:08:26.858Z,99785.99
2023-05-21T03:10:55.391Z,99789.38
2023-05-21T03:13:23.419Z,99789.23
2023-05-21T03:15:51.436Z,99789.27
2023-05-21T03:18:19.200Z,99788.53
2023-05-21T03:20:46.912Z,99792.86
2023-05-21T03:23:16.561Z,99788.83
2023-05-21T03:25:46.313Z,99787.30
2023-05-21T03:28:14.171Z,99775.55
2023-05-21T03:30:42.324Z,99779.07
2023-05-21T03:33:11.462Z,99780.13
2023-05-21T03:35:39.390Z,99781.72
2023-05-21T03:38:07.157Z,99780.46
2023-05-21T03:40:35.021Z,99779.58
2023-05-21T03:43:02.782Z,99784.50
2023-05-21T03:45:30.757Z,99784.67
2023-05-21T03:47:58.778Z,99789.02
2023-05-21T03:50:26.706Z,99791.47
2023-05-21T03:52:54.562Z,99792.52
2023-05-21T03:55:22.324Z,99794.88
2023-05-21T03:57:50.195Z,99790.99
2023-05-21T04:00:18.157Z,99792.20
2023-05-21T04:02:46.089Z,99792.35
2023-05-21T04:05:14.097Z,99793.71
2023-05-21T04:07:43.191Z,99794.75
2023-05-21T04:10:11.069Z,99794.40
2023-05-21T04:12:38.925Z,99793.12
2023-05-21T04:15:06.792Z,99788.47
2023-05-21T04:17:35.705Z,99783.89
2023-05-21T04:20:04.268Z,99784.06
2023-05-21T04:22:32.143Z,99782.80
2023-05-21T04:25:00.004Z,99782.25
2023-05-21T04:27:27.867Z,99784.85
2023-05-21T04:29:55.629Z,99784.11
2023-05-21T04:32:23.531Z,99788.31
2023-05-21T04:34:51.375Z,99782.27
2023-05-21T04:37:19.227Z,99781.01
2023-05-21T04:39:47.199Z,99785.05
2023-05-21T04:42:14.964Z,99779.58
2023-05-21T04:44:44.860Z,99777.43
2023-05-21T04:47:15.199Z,99774.44
2023-05-21T04:49:42.970Z,99775.48
2023-05-21T04:52:10.803Z,99774.77
2023-05-21T04:54:39.234Z,99775.55
2023-05-21T04:57:07.199Z,99776.25
2023-05-21T04:59:34.947Z,99777.98
2023-05-21T05:02:03.026Z,99780.56
2023-05-21T05:04:30.986Z,99780.17
2023-05-21T05:06:58.774Z,99777.12
2023-05-21T05:09:26.621Z,99780.61
2023-05-21T05:11:54.268Z,99776.23
2023-05-21T05:14:22.045Z,99775.55
2023-05-21T05:16:49.859Z,99773.35
2023-05-21T05:19:17.763Z,99775.98
2023-05-21T05:21:45.951Z,99777.91
2023-05-21T05:24:13.717Z,99773.12
2023-05-21T05:26:41.481Z,99772.02
2023-05-21T05:29:09.246Z,99772.32
2023-05-21T05:31:37.010Z,99773.33
2023-05-21T05:34:04.774Z,99774.38
2023-05-21T05:36:32.540Z,99774.18
2023-05-21T05:39:00.306Z,99773.08
2023-05-21T05:41:28.064Z,99772.23
2023-05-21T05:43:55.931Z,99771.64
2023-05-21T05:46:23.786Z,99772.30
2023-05-21T05:48:51.767Z,99769.94
2023-05-21T05:51:19.652Z,99768.48
2023-05-21T05:53:47.599Z,99767.54
2023-05-21T05:56:17.424Z,99764.01
2023-05-21T05:58:45.287Z,99759.38
2023-05-21T06:01:13.768Z,99753.34
2023-05-21T06:03:41.668Z,99751.96
2023-05-21T06:06:09.662Z,99753.47
2023-05-21T06:08:38.498Z,99757.08
2023-05-21T06:11:06.454Z,99758.93
2023-05-21T06:13:34.336Z,99760.27
2023-05-21T06:16:02.106Z,99761.61
2023-05-21T06:18:29.956Z,99761.17
2023-05-21T06:20:58.027Z,99762.16
2023-05-21T06:23:25.994Z,99758.98
2023-05-21T06:25:53.762Z,99761.05
2023-05-21T06:28:21.520Z,99760.27
2023-05-21T06:30:49.313Z,99757.66
2023-05-21T06:33:17.253Z,99758.63
2023-05-21T06:35:45.126Z,99759.59
2023-05-21T06:38:12.936Z,99752.67
2023-05-21T06:40:40.755Z,99758.73
2023-05-21T06:43:08.519Z,99762.30
2023-05-21T06:45:37.073Z,99759.77
2023-05-21T06:48:05.107Z,99759.00
2023-05-21T06:50:32.941Z,99759.14
2023-05-21T06:53:00.955Z,99755.22
2023-05-21T06:55:28.777Z,99752.88
2023-05-21T06:57:56.641Z,99751.69
2023-05-21T07:00:24.443Z,99751.98
2023-05-21T07:02:52.377Z,99753.48
2023-05-21T07:05:20.443Z,99751.45
2023-05-21T07:07:48.214Z,99748.92
2023-05-21T07:10:15.982Z,99750.61
2023-05-21T07:12:43.741Z,99746.49
2023-05-21T07:15:11.501Z,99746.63
2023-05-21T07:17:39.496Z,99746.52
2023-05-21T07:20:08.051Z,99746.13
2023-05-21T07:22:35.731Z,99746.03
2023-05-21T07:25:03.599Z,99745.63
2023-05-21T07:27:31.246Z,99741.77
2023-05-21T07:29:58.962Z,99743.20
2023-05-21T07:32:29.370Z,99740.09
2023-05-21T07:34:57.209Z,99739.59
2023-05-21T07:37:25.809Z,99739.83
2023-05-21T07:39:53.645Z,99737.60
2023-05-21T07:42:21.413Z,99738.38
2023-05-21T07:44:49.176Z,99736.52
2023-05-21T07:47:16.990Z,99731.69
2023-05-21T07:49:44.820Z,99730.86
2023-05-21T07:52:12.487Z,99725.16
2023-05-21T07:54:40.442Z,99722.20
2023-05-21T07:57:08.276Z,99720.46
2023-05-21T07:59:35.962Z,99721.70
2023-05-21T08:02:03.617Z,99718.94
2023-05-21T08:04:31.676Z,99716.90
2023-05-21T08:06:59.413Z,99716.96
2023-05-21T08:09:27.260Z,99715.30
2023-05-21T08:11:54.932Z,99717.12
2023-05-21T08:14:22.593Z,99719.13
2023-05-21T08:16:50.556Z,99719.17
2023-05-21T08:19:18.447Z,99721.99
2023-05-21T08:21:46.569Z,99719.61
2023-05-21T08:24:14.332Z,99719.79
2023-05-21T08:26:42.110Z,99718.94
2023-05-21T08:29:09.970Z,99719.30
2023-05-21T08:31:37.851Z,99721.91
2023-05-21T08:34:05.693Z,99718.35
2023-05-21T08:36:33.459Z,99717.13
2023-05-21T08:39:01.432Z,99713.77
2023-05-21T08:41:29.192Z,99712.69
2023-05-21T08:43:57.981Z,99711.83
2023-05-21T08:46:26.007Z,99715.23
2023-05-21T08:48:57.295Z,99715.48
2023-05-21T08:51:25.009Z,99713.05
2023-05-21T08:53:52.826Z,99714.66
2023-05-21T08:56:20.584Z,99709.72
2023-05-21T08:58:48.477Z,99706.84
2023-05-21T09:01:19.602Z,99701.55
2023-05-21T09:03:47.683Z,99700.02
2023-05-21T09:06:15.433Z,99702.77
2023-05-21T09:08:43.211Z,99700.89
2023-05-21T09:11:11.016Z,99698.84
2023-05-21T09:13:39.209Z,99698.16
2023-05-21T09:16:07.006Z,99695.91
2023-05-21T09:18:34.762Z,99694.81
2023-05-21T09:21:02.528Z,99695.14
2023-05-21T09:23:30.396Z,99695.74
2023-05-21T09:25:58.160Z,99692.96
2023-05-21T09:28:25.924Z,99691.28
2023-05-21T09:30:54.468Z,99694.02
2023-05-21T09:33:23.212Z,99693.20
2023-05-21T09:35:50.878Z,99693.17
2023-05-21T09:38:18.543Z,99687.95
2023-05-21T09:40:49.135Z,99684.84
2023-05-21T09:43:16.820Z,99685.48
2023-05-21T09:45:44.622Z,99687.41
2023-05-21T09:48:12.853Z,99685.77
2023-05-21T09:50:40.531Z,99682.36
2023-05-21T09:53:08.184Z,99680.34
2023-05-21T09:55:35.821Z,99681.82
2023-05-21T09:58:04.865Z,99681.97
2023-05-21T10:00:32.564Z,99683.14
2023-05-21T10:03:00.291Z,99683.70
2023-05-21T10:05:31.413Z,99684.69
2023-05-21T10:07:59.290Z,99681.26
2023-05-21T10:10:27.034Z,99678.41
2023-05-21T10:12:54.808Z,99676.69
2023-05-21T10:15:22.557Z,99671.78
2023-05-21T10:17:50.844Z,99673.71
2023-05-21T10:20:19.134Z,99673.57
2023-05-21T10:22:46.887Z,99672.22
2023-05-21T10:25:14.741Z,99671.70
2023-05-21T10:27:42.508Z,99668.19
2023-05-21T10:30:10.476Z,99678.64
2023-05-21T10:32:38.481Z,99672.94
2023-05-21T10:35:06.933Z,99674.45
2023-05-21T10:37:34.743Z,99669.11
2023-05-21T10:40:02.982Z,99667.06
2023-05-21T10:42:30.670Z,99661.87
2023-05-21T10:44:58.498Z,99656.29
2023-05-21T10:47:27.153Z,99658.77
2023-05-21T10:49:54.882Z,99662.63
2023-05-21T10:52:22.550Z,99659.83
2023-05-21T10:54:50.371Z,99657.19
2023-05-21T10:57:18.143Z,99656.92
2023-05-21T10:59:46.116Z,99654.67
2023-05-21T11:02:13.847Z,99654.19
2023-05-21T11:04:43.491Z,99650.66
2023-05-21T11:07:11.195Z,99649.31
2023-05-21T11:09:38.874Z,99646.05
2023-05-21T11:12:08.525Z,99642.51
2023-05-21T11:14:36.760Z,99641.81
2023-05-21T11:17:04.812Z,99642.02
2023-05-21T11:19:34.315Z,99641.27
2023-05-21T11:22:02.180Z,99640.83
2023-05-21T11:24:29.849Z,99644.13
2023-05-21T11:26:58.791Z,99645.34
2023-05-21T11:29:29.985Z,99640.42
2023-05-21T11:32:04.441Z,99637.95
2023-05-21T11:34:40.959Z,99638.27
2023-05-21T11:37:09.815Z,99638.73
2023-05-21T11:39:40.542Z,99637.92
2023-05-21T11:42:08.412Z,99636.97
2023-05-21T11:44:36.153Z,99634.69
2023-05-21T11:47:04.042Z,99632.54
2023-05-21T11:49:31.909Z,99633.52
2023-05-21T11:52:00.390Z,99631.78
2023-05-21T11:54:29.689Z,99633.02
2023-05-21T11:56:57.456Z,99633.34
2023-05-21T11:59:25.173Z,99634.16
2023-05-21T12:01:52.982Z,99625.27
2023-05-21T12:04:21.059Z,99626.59
2023-05-21T12:06:50.798Z,99625.60
2023-05-21T12:09:18.506Z,99625.14
2023-05-21T12:11:46.520Z,99623.05
2023-05-21T12:14:14.295Z,99620.48
2023-05-21T12:16:42.294Z,99621.30
2023-05-21T12:19:10.108Z,99620.83
2023-05-21T12:21:37.812Z,99623.86
2023-05-21T12:24:05.544Z,99621.46
2023-05-21T12:26:33.342Z,99621.00
2023-05-21T12:29:01.170Z,99614.27
2023-05-21T12:31:28.883Z,99613.00
2023-05-21T12:33:56.578Z,99608.52
2023-05-21T12:36:24.267Z,99615.35
2023-05-21T12:38:52.240Z,99613.61
2023-05-21T12:41:19.925Z,99616.63
2023-05-21T12:43:47.571Z,99615.06
2023-05-21T12:46:17.414Z,99616.14
2023-05-21T12:48:45.234Z,99611.64
2023-05-21T12:51:12.930Z,99612.25
2023-05-21T12:53:40.622Z,99610.52
2023-05-21T12:56:08.263Z,99608.57
2023-05-21T12:58:38.422Z,99605.27
2023-05-21T13:01:06.261Z,99603.79
2023-05-21T13:03:33.988Z,99599.97
2023-05-21T13:06:01.690Z,99601.06
2023-05-21T13:08:29.608Z,99599.52
2023-05-21T13:10:57.641Z,99595.11
2023-05-21T13:13:25.532Z,99596.97
2023-05-21T13:15:53.377Z,99594.60
2023-05-21T13:18:21.223Z,99589.89
2023-05-21T13:20:49.024Z,99585.48
2023-05-21T13:23:16.757Z,99590.29
2023-05-21T13:25:44.506Z,99593.05
2023-05-21T13:28:15.208Z,99586.88
2023-05-21T13:30:43.006Z,99585.69
2023-05-21T13:33:11.838Z,99586.64
2023-05-21T13:35:39.706Z,99585.49
2023-05-21T13:38:07.404Z,99583.68
2023-05-21T13:40:37.328Z,99583.96
2023-05-21T13:43:06.573Z,99582.23
2023-05-21T13:45:34.272Z,99583.13
2023-05-21T13:48:01.999Z,99579.56
2023-05-21T13:50:29.722Z,99577.73
2023-05-21T13:52:57.393Z,99574.73
2023-05-21T13:55:25.069Z,99574.88
2023-05-21T13:57:52.815Z,99572.36
2023-05-21T14:00:20.521Z,99570.64
2023-05-21T14:02:48.346Z,99569.40
2023-05-21T14:05:16.299Z,99568.75
2023-05-21T14:07:43.973Z,99562.45
2023-05-21T14:10:12.041Z,99561.56
2023-05-21T14:12:41.057Z,99562.63
2023-05-21T14:15:09.156Z,99564.30
2023-05-21T14:17:36.950Z,99561.16
2023-05-21T14:20:05.072Z,99558.65
2023-05-21T14:22:32.959Z,99556.55
2023-05-21T14:25:01.127Z,99554.05
2023-05-21T14:27:28.887Z,99555.14
2023-05-21T14:29:56.756Z,99555.63
2023-05-21T14:32:24.793Z,99556.75
2023-05-21T14:34:52.798Z,99553.40
2023-05-21T14:37:20.562Z,99551.52
2023-05-21T14:39:48.536Z,99552.94
2023-05-21T14:42:16.294Z,99551.52
2023-05-21T14:44:44.056Z,99553.37
2023-05-21T14:47:11.931Z,99552.02
2023-05-21T14:49:39.791Z,99551.23
2023-05-21T14:52:07.968Z,99547.89
2023-05-21T14:54:36.554Z,99546.99
2023-05-21T14:57:04.426Z,99551.55
2023-05-21T14:59:32.278Z,99547.39
2023-05-21T15:02:00.142Z,99547.77
2023-05-21T15:04:28.220Z,99545.85
2023-05-21T15:06:56.080Z,99543.77
2023-05-21T15:09:23.845Z,99546.44
2023-05-21T15:11:53.756Z,99545.36
2023-05-21T15:14:21.728Z,99547.21
2023-05-21T15:16:49.524Z,99545.52
2023-05-21T15:19:17.622Z,99543.21
2023-05-21T15:21:45.544Z,99543.35
2023-05-21T15:24:13.609Z,99541.80
2023-05-21T15:26:41.884Z,99544.16
2023-05-21T15:29:09.544Z,99543.61
2023-05-21T15:31:37.440Z,99544.96
2023-05-21T15:34:05.481Z,99543.77
2023-05-21T15:36:33.352Z,99547.25
2023-05-21T15:39:03.923Z,99543.16
2023-05-21T15:41:31.748Z,99544.48
2023-05-21T15:43:59.460Z,99544.69
2023-05-21T15:46:27.288Z,99545.14
2023-05-21T15:48:55.149Z,99544.72
2023-05-21T15:51:23.007Z,99543.20
2023-05-21T15:53:50.877Z,99541.95
2023-05-21T15:56:18.951Z,99541.84
2023-05-21T15:58:46.936Z,99539.84
2023-05-21T16:01:14.936Z,99540.20
2023-05-21T16:03:42.890Z,99536.73
2023-05-21T16:06:10.926Z,99536.98
2023-05-21T16:08:38.692Z,99537.29
2023-05-21T16:11:06.676Z,99538.23
2023-05-21T16:13:34.428Z,99540.34
2023-05-21T16:16:02.191Z,99536.71
2023-05-21T16:18:30.059Z,99534.98
2023-05-21T16:20:57.838Z,99539.71
2023-05-21T16:23:26.103Z,99538.29
2023-05-21T16:25:53.966Z,99541.04
2023-05-21T16:28:24.550Z,99541.05
2023-05-21T16:30:52.237Z,99541.48
2023-05-21T16:33:19.958Z,99541.50
2023-05-21T16:35:47.612Z,99543.55
2023-05-21T16:38:15.510Z,99543.57
2023-05-21T16:40:43.213Z,99545.27
2023-05-21T16:43:10.934Z,99546.55
2023-05-21T16:45:38.782Z,99545.73
2023-05-21T16:48:06.813Z,99546.19
2023-05-21T16:50:34.623Z,99549.05
2023-05-21T16:53:06.834Z,99551.63
2023-05-21T16:55:34.694Z,99548.29
2023-05-21T16:58:02.746Z,99551.70
2023-05-21T17:00:30.883Z,99553.60
2023-05-21T17:02:58.733Z,99556.77
2023-05-21T17:05:26.645Z,99558.69
2023-05-21T17:07:55.385Z,99558.45
2023-05-21T17:10:23.039Z,99561.23
2023-05-21T17:12:51.056Z,99560.34
2023-05-21T17:15:18.767Z,99557.33
2023-05-21T17:17:46.537Z,99559.42
2023-05-21T17:20:14.617Z,99555.64
2023-05-21T17:22:42.363Z,99560.58
2023-05-21T17:25:10.071Z,99559.85
2023-05-21T17:27:38.047Z,99562.48
2023-05-21T17:30:05.883Z,99560.11
2023-05-21T17:32:33.768Z,99560.20
2023-05-21T17:35:01.460Z,99562.15
2023-05-21T17:37:29.241Z,99562.14
2023-05-21T17:39:57.969Z,99567.25
2023-05-21T17:42:25.738Z,99570.77
2023-05-21T17:44:53.445Z,99567.55
2023-05-21T17:47:21.240Z,99570.35
2023-05-21T17:49:48.905Z,99566.29
2023-05-21T17:52:16.631Z,99566.46
2023-05-21T17:54:44.308Z,99570.31
2023-05-21T17:57:12.314Z,99567.27
2023-05-21T17:59:45.188Z,99568.14
2023-05-21T18:02:13.049Z,99570.73
2023-05-21T18:04:41.119Z,99572.11
2023-05-21T18:07:08.945Z,99569.93
2023-05-21T18:09:36.853Z,99567.61
2023-05-21T18:12:05.953Z,99568.64
2023-05-21T18:14:34.228Z,99568.94
2023-05-21T18:17:02.044Z,99569.58
2023-05-21T18:19:32.406Z,99569.36
2023-05-21T18:22:00.164Z,99571.30
2023-05-21T18:24:27.945Z,99573.38
2023-05-21T18:26:56.463Z,99571.73
2023-05-21T18:29:24.279Z,99577.36
2023-05-21T18:31:52.046Z,99578.44
2023-05-21T18:34:19.892Z,99580.70
2023-05-21T18:36:48.371Z,99579.77
2023-05-21T18:39:16.143Z,99580.81
2023-05-21T18:41:43.822Z,99579.74
2023-05-21T18:44:11.480Z,99578.30
2023-05-21T18:46:39.724Z,99582.14
2023-05-21T18:49:07.562Z,99582.48
2023-05-21T18:51:35.240Z,99583.63
2023-05-21T18:54:03.073Z,99583.20
2023-05-21T18:56:31.037Z,99586.14
2023-05-21T18:58:58.764Z,99588.60
2023-05-21T19:01:26.549Z,99587.70
2023-05-21T19:03:54.274Z,99595.56
2023-05-21T19:06:25.821Z,99597.43
2023-05-21T19:08:53.507Z,99599.46
2023-05-21T19:11:23.656Z,99603.45
2023-05-21T19:13:51.615Z,99604.39
2023-05-21T19:16:19.451Z,99608.34
2023-05-21T19:18:47.191Z,99610.83
2023-05-21T19:21:14.891Z,99611.17
2023-05-21T19:23:52.569Z,99608.17
2023-05-21T19:26:22.523Z,99611.91
2023-05-21T19:28:54.689Z,99615.41
2023-05-21T19:31:22.793Z,99609.96
2023-05-21T19:33:50.994Z,99607.64
2023-05-21T19:36:19.119Z,99608.53
2023-05-21T19:38:48.420Z,99609.58
2023-05-21T19:41:16.299Z,99611.50
2023-05-21T19:43:44.004Z,99605.66
2023-05-21T19:46:11.807Z,99608.30
2023-05-21T19:48:39.666Z,99608.98
2023-05-21T19:51:07.466Z,99609.81
2023-05-21T19:53:35.453Z,99611.16
2023-05-21T19:56:03.312Z,99607.40
2023-05-21T19:58:31.685Z,99608.40
2023-05-21T20:00:59.591Z,99606.42
2023-05-21T20:03:28.187Z,99605.52
2023-05-21T20:05:56.096Z,99603.54
2023-05-21T20:08:24.028Z,99602.42
2023-05-21T20:10:52.208Z,99602.91
2023-05-21T20:13:19.993Z,99601.49
2023-05-21T20:15:50.565Z,99599.16
2023-05-21T20:18:20.331Z,99593.65
2023-05-21T20:20:47.990Z,99594.30
2023-05-21T20:23:15.782Z,99598.11
2023-05-21T20:25:43.581Z,99599.82
2023-05-21T20:28:11.243Z,99601.17
2023-05-21T20:30:39.108Z,99600.26
2023-05-21T20:33:07.063Z,99603.90
2023-05-21T20:35:34.996Z,99603.11
2023-05-21T20:38:02.779Z,99604.80
2023-05-21T20:40:30.450Z,99610.38
2023-05-21T20:42:58.918Z,99616.13
2023-05-21T20:45:29.740Z,99615.02
2023-05-21T20:47:57.967Z,99614.23
2023-05-21T20:50:26.087Z,99610.83
2023-05-21T20:52:53.912Z,99608.29
2023-05-21T20:55:21.621Z,99606.65
2023-05-21T20:57:49.267Z,99606.39
2023-05-21T21:00:17.261Z,99610.67
2023-05-21T21:02:45.260Z,99610.58
2023-05-21T21:05:13.371Z,99612.77
2023-05-21T21:07:42.165Z,99608.64
2023-05-21T21:10:09.930Z,99610.31
2023-05-21T21:12:37.636Z,99607.25
2023-05-21T21:15:05.614Z,99607.31
2023-05-21T21:17:33.554Z,99613.70
2023-05-21T21:20:01.398Z,99613.62
2023-05-21T21:22:29.164Z,99614.40
2023-05-21T21:24:57.027Z,99614.67
2023-05-21T21:27:24.790Z,99614.59
2023-05-21T21:29:52.555Z,99618.02
2023-05-21T21:32:20.421Z,99615.82
2023-05-21T21:34:48.286Z,99617.66
2023-05-21T21:37:16.458Z,99617.04
2023-05-21T21:39:44.330Z,99617.52
2023-05-21T21:42:12.096Z,99617.06
2023-05-21T21:44:39.857Z,99621.38
2023-05-21T21:47:07.638Z,99617.61
2023-05-21T21:49:35.594Z,99617.36
2023-05-21T21:52:03.413Z,99616.41
2023-05-21T21:54:31.074Z,99615.30
2023-05-21T21:56:58.888Z,99615.89
2023-05-21T21:59:26.649Z,99614.77
2023-05-21T22:01:57.460Z,99619.43
2023-05-21T22:04:25.269Z,99620.58
2023-05-21T22:06:53.854Z,99622.77
2023-05-21T22:09:22.780Z,99619.14
2023-05-21T22:11:50.959Z,99617.60
2023-05-21T22:14:19.579Z,99614.66
2023-05-21T22:16:53.442Z,99609.81
2023-05-21T22:19:22.278Z,99610.89
2023-05-21T22:21:50.364Z,99611.50
2023-05-21T22:24:30.893Z,99613.70
2023-05-21T22:26:59.613Z,99612.55
2023-05-21T22:29:27.485Z,99609.13
2023-05-21T22:31:55.245Z,99607.60
2023-05-21T22:34:25.549Z,99607.64
2023-05-21T22:36:53.323Z,99604.34
2023-05-21T22:39:21.106Z,99603.69
2023-05-21T22:41:48.959Z,99603.74
2023-05-21T22:44:16.724Z,99602.91
2023-05-21T22:46:44.637Z,99601.03
2023-05-21T22:49:12.454Z,99600.04
2023-05-21T22:51:45.060Z,99596.58
2023-05-21T22:54:12.921Z,99595.58
2023-05-21T22:56:40.969Z,99591.05
2023-05-21T22:59:08.734Z,99586.67
2023-05-21T23:01:38.367Z,99586.70
2023-05-21T23:04:06.415Z,99587.61
2023-05-21T23:06:34.175Z,99589.23
2023-05-21T23:09:01.941Z,99587.68
2023-05-21T23:11:29.707Z,99583.69
2023-05-21T23:13:57.465Z,99581.48
2023-05-21T23:16:25.739Z,99578.18
2023-05-21T23:18:54.675Z,99576.81
2023-05-21T23:21:22.529Z,99575.62
2023-05-21T23:23:50.372Z,99576.35
2023-05-21T23:26:18.235Z,99574.64
2023-05-21T23:28:46.005Z,99573.64
2023-05-21T23:31:13.754Z,99570.02
2023-05-21T23:33:41.731Z,99573.58
2023-05-21T23:36:09.492Z,99567.70
2023-05-21T23:38:37.262Z,99566.84
2023-05-21T23:41:05.038Z,99564.43
2023-05-21T23:43:32.791Z,99564.63
2023-05-21T23:46:00.628Z,99558.89
2023-05-21T23:48:28.474Z,99558.56
2023-05-21T23:50:56.285Z,99554.75
2023-05-21T23:53:24.051Z,99555.69
2023-05-21T23:55:51.754Z,99550.64
2023-05-21T23:58:19.399Z,99554.20
